createdAt,value
2018-07-15T00:00:52.981Z,938.61
2018-07-15T00:01:52.982Z,938.63
2018-07-15T00:02:52.986Z,938.60
2018-07-15T00:03:52.984Z,938.61
2018-07-15T00:04:52.988Z,938.62
2018-07-15T00:05:52.990Z,938.60
2018-07-15T00:06:52.991Z,938.61
2018-07-15T00:07:52.990Z,938.63
2018-07-15T00:08:52.991Z,938.63
2018-07-15T00:09:52.993Z,938.65
2018-07-15T00:10:52.994Z,938.65
2018-07-15T00:11:52.995Z,938.66
2018-07-15T00:12:52.997Z,938.64
2018-07-15T00:13:52.999Z,938.62
2018-07-15T00:14:53.002Z,938.58
2018-07-15T00:15:53.001Z,938.58
2018-07-15T00:16:53.004Z,938.57
2018-07-15T00:17:53.006Z,938.58
2018-07-15T00:18:53.007Z,938.53
2018-07-15T00:19:53.007Z,938.57
2018-07-15T00:20:53.017Z,938.54
2018-07-15T00:21:53.012Z,938.53
2018-07-15T00:22:53.012Z,938.52
2018-07-15T00:23:53.014Z,938.50
2018-07-15T00:24:53.016Z,938.49
2018-07-15T00:25:53.017Z,938.50
2018-07-15T00:26:53.019Z,938.50
2018-07-15T00:27:53.019Z,938.50
2018-07-15T00:28:53.019Z,938.48
2018-07-15T00:29:53.021Z,938.49
2018-07-15T00:30:53.023Z,938.44
2018-07-15T00:31:53.027Z,938.43
2018-07-15T00:32:53.024Z,938.45
2018-07-15T00:33:53.026Z,938.45
2018-07-15T00:34:53.029Z,938.46
2018-07-15T00:35:53.029Z,938.46
2018-07-15T00:36:53.030Z,938.43
2018-07-15T00:37:53.032Z,938.41
2018-07-15T00:38:53.033Z,938.44
2018-07-15T00:39:53.033Z,938.41
2018-07-15T00:40:53.035Z,938.41
2018-07-15T00:41:53.038Z,938.43
2018-07-15T00:42:53.040Z,938.46
2018-07-15T00:43:53.040Z,938.46
2018-07-15T00:44:53.042Z,938.45
2018-07-15T00:45:53.042Z,938.42
2018-07-15T00:46:53.046Z,938.45
2018-07-15T00:47:53.045Z,938.45
2018-07-15T00:48:53.047Z,938.42
2018-07-15T00:49:53.048Z,938.45
2018-07-15T00:50:53.049Z,938.48
2018-07-15T00:51:53.051Z,938.46
2018-07-15T00:52:53.053Z,938.47
2018-07-15T00:53:53.053Z,938.44
2018-07-15T00:54:53.055Z,938.45
2018-07-15T00:55:53.058Z,938.43
2018-07-15T00:56:53.058Z,938.43
2018-07-15T00:57:53.060Z,938.44
2018-07-15T00:58:53.060Z,938.41
2018-07-15T00:59:53.061Z,938.43
2018-07-15T01:00:53.062Z,938.42
2018-07-15T01:01:53.067Z,938.43
2018-07-15T01:02:53.065Z,938.43
2018-07-15T01:03:53.066Z,938.37
2018-07-15T01:04:53.067Z,938.42
2018-07-15T01:05:53.069Z,938.38
2018-07-15T01:06:53.070Z,938.39
2018-07-15T01:07:53.070Z,938.36
2018-07-15T01:08:53.072Z,938.39
2018-07-15T01:09:53.074Z,938.37
2018-07-15T01:10:53.075Z,938.37
2018-07-15T01:11:53.075Z,938.39
2018-07-15T01:12:53.077Z,938.33
2018-07-15T01:13:53.078Z,938.32
2018-07-15T01:14:53.080Z,938.34
2018-07-15T01:15:53.080Z,938.33
2018-07-15T01:16:53.081Z,938.35
2018-07-15T01:17:53.083Z,938.31
2018-07-15T01:18:53.084Z,938.34
2018-07-15T01:19:53.084Z,938.33
2018-07-15T01:20:53.086Z,938.33
2018-07-15T01:21:53.090Z,938.31
2018-07-15T01:22:53.090Z,938.31
2018-07-15T01:23:53.090Z,938.35
2018-07-15T01:24:53.092Z,938.34
2018-07-15T01:25:53.093Z,938.43
2018-07-15T01:26:53.095Z,938.40
2018-07-15T01:27:53.094Z,938.43
2018-07-15T01:28:53.096Z,938.45
2018-07-15T01:29:53.097Z,938.44
2018-07-15T01:30:53.100Z,938.44
2018-07-15T01:31:53.100Z,938.47
2018-07-15T01:32:53.101Z,938.46
2018-07-15T01:33:53.104Z,938.47
2018-07-15T01:34:53.104Z,938.45
2018-07-15T01:35:53.104Z,938.43
2018-07-15T01:36:53.105Z,938.44
2018-07-15T01:37:53.107Z,938.38
2018-07-15T01:38:53.109Z,938.38
2018-07-15T01:39:53.108Z,938.36
2018-07-15T01:40:53.110Z,938.36
2018-07-15T01:41:53.116Z,938.33
2018-07-15T01:42:53.113Z,938.34
2018-07-15T01:43:53.115Z,938.31
2018-07-15T01:44:53.115Z,938.31
2018-07-15T01:45:53.115Z,938.32
2018-07-15T01:46:53.118Z,938.31
2018-07-15T01:47:53.118Z,938.26
2018-07-15T01:48:53.118Z,938.28
2018-07-15T01:49:53.120Z,938.30
2018-07-15T01:50:53.122Z,938.27
2018-07-15T01:51:53.122Z,938.27
2018-07-15T01:52:53.123Z,938.26
2018-07-15T01:53:53.125Z,938.27
2018-07-15T01:54:53.126Z,938.29
2018-07-15T01:55:53.127Z,938.24
2018-07-15T01:56:53.130Z,938.26
2018-07-15T01:57:53.128Z,938.28
2018-07-15T01:58:53.132Z,938.27
2018-07-15T01:59:53.131Z,938.26
2018-07-15T02:00:53.133Z,938.24
2018-07-15T02:01:53.134Z,938.23
2018-07-15T02:02:53.135Z,938.24
2018-07-15T02:03:53.135Z,938.20
2018-07-15T02:04:53.138Z,938.20
2018-07-15T02:05:53.138Z,938.18
2018-07-15T02:06:53.142Z,938.21
2018-07-15T02:07:53.140Z,938.19
2018-07-15T02:08:53.142Z,938.19
2018-07-15T02:09:53.141Z,938.19
2018-07-15T02:10:53.143Z,938.20
2018-07-15T02:11:53.144Z,938.20
2018-07-15T02:12:53.146Z,938.21
2018-07-15T02:13:53.147Z,938.18
2018-07-15T02:14:53.147Z,938.18
2018-07-15T02:15:53.148Z,938.17
2018-07-15T02:16:53.149Z,938.16
2018-07-15T02:17:53.151Z,938.19
2018-07-15T02:18:53.153Z,938.16
2018-07-15T02:19:53.153Z,938.17
2018-07-15T02:20:53.154Z,938.16
2018-07-15T02:21:53.156Z,938.17
2018-07-15T02:22:53.156Z,938.19
2018-07-15T02:23:53.157Z,938.18
2018-07-15T02:24:53.160Z,938.16
2018-07-15T02:25:53.161Z,938.15
2018-07-15T02:26:53.168Z,938.16
2018-07-15T02:27:53.161Z,938.15
2018-07-15T02:28:53.163Z,938.20
2018-07-15T02:29:53.163Z,938.20
2018-07-15T02:30:53.165Z,938.21
2018-07-15T02:31:53.165Z,938.22
2018-07-15T02:32:53.173Z,938.24
2018-07-15T02:33:53.169Z,938.30
2018-07-15T02:34:53.168Z,938.35
2018-07-15T02:35:53.169Z,938.39
2018-07-15T02:36:53.254Z,938.43
2018-07-15T02:37:53.172Z,938.48
2018-07-15T02:38:53.174Z,938.50
2018-07-15T02:39:53.174Z,938.47
2018-07-15T02:40:53.175Z,938.49
2018-07-15T02:41:53.177Z,938.49
2018-07-15T02:42:53.178Z,938.47
2018-07-15T02:43:53.178Z,938.44
2018-07-15T02:44:53.179Z,938.44
2018-07-15T02:45:53.180Z,938.44
2018-07-15T02:46:53.185Z,938.46
2018-07-15T02:47:53.181Z,938.45
2018-07-15T02:48:53.183Z,938.46
2018-07-15T02:49:53.183Z,938.42
2018-07-15T02:50:53.185Z,938.44
2018-07-15T02:51:53.186Z,938.43
2018-07-15T02:52:53.185Z,938.42
2018-07-15T02:53:53.189Z,938.40
2018-07-15T02:54:53.187Z,938.37
2018-07-15T02:55:53.189Z,938.38
2018-07-15T02:56:53.190Z,938.38
2018-07-15T02:57:53.189Z,938.39
2018-07-15T02:58:53.190Z,938.41
2018-07-15T02:59:53.191Z,938.43
2018-07-15T03:00:53.195Z,938.47
2018-07-15T03:01:53.194Z,938.50
2018-07-15T03:02:53.195Z,938.55
2018-07-15T03:03:53.194Z,938.65
2018-07-15T03:04:53.196Z,938.70
2018-07-15T03:05:53.196Z,938.71
2018-07-15T03:06:53.197Z,938.73
2018-07-15T03:07:53.197Z,938.70
2018-07-15T03:08:53.198Z,938.71
2018-07-15T03:09:53.198Z,938.72
2018-07-15T03:10:53.200Z,938.74
2018-07-15T03:11:53.200Z,938.74
2018-07-15T03:12:53.201Z,938.72
2018-07-15T03:13:53.201Z,938.69
2018-07-15T03:14:53.202Z,938.71
2018-07-15T03:15:53.203Z,938.72
2018-07-15T03:16:53.202Z,938.77
2018-07-15T03:17:53.206Z,938.76
2018-07-15T03:18:53.205Z,938.74
2018-07-15T03:19:53.205Z,938.77
2018-07-15T03:20:53.205Z,938.77
2018-07-15T03:21:53.205Z,938.70
2018-07-15T03:22:53.208Z,938.74
2018-07-15T03:23:53.206Z,938.76
2018-07-15T03:24:53.208Z,938.71
2018-07-15T03:25:53.207Z,938.71
2018-07-15T03:26:53.208Z,938.70
2018-07-15T03:27:53.208Z,938.66
2018-07-15T03:28:53.210Z,938.65
2018-07-15T03:29:53.209Z,938.64
2018-07-15T03:30:53.210Z,938.73
2018-07-15T03:31:53.209Z,938.77
2018-07-15T03:32:53.211Z,938.84
2018-07-15T03:33:53.211Z,938.87
2018-07-15T03:34:53.212Z,938.89
2018-07-15T03:35:53.212Z,938.91
2018-07-15T03:36:53.217Z,938.86
2018-07-15T03:37:53.213Z,938.72
2018-07-15T03:38:53.213Z,938.64
2018-07-15T03:39:53.233Z,938.67
2018-07-15T03:40:53.215Z,938.53
2018-07-15T03:41:53.216Z,938.53
2018-07-15T03:42:53.216Z,938.57
2018-07-15T03:43:53.215Z,938.48
2018-07-15T03:44:53.216Z,938.50
2018-07-15T03:45:53.218Z,938.51
2018-07-15T03:46:53.217Z,938.48
2018-07-15T03:47:53.217Z,938.51
2018-07-15T03:48:53.218Z,938.48
2018-07-15T03:49:53.218Z,938.44
2018-07-15T03:50:53.218Z,938.46
2018-07-15T03:51:53.220Z,938.39
2018-07-15T03:52:53.221Z,938.32
2018-07-15T03:53:53.220Z,938.32
2018-07-15T03:54:53.220Z,938.26
2018-07-15T03:55:53.220Z,938.24
2018-07-15T03:56:53.221Z,938.18
2018-07-15T03:57:53.223Z,938.18
2018-07-15T03:58:53.222Z,938.20
2018-07-15T03:59:53.221Z,938.18
2018-07-15T04:00:53.249Z,938.13
2018-07-15T04:01:53.224Z,938.15
2018-07-15T04:02:53.224Z,938.22
2018-07-15T04:03:53.223Z,938.24
2018-07-15T04:04:53.224Z,938.26
2018-07-15T04:05:53.224Z,938.28
2018-07-15T04:06:53.227Z,938.24
2018-07-15T04:07:53.226Z,938.28
2018-07-15T04:08:53.300Z,938.33
2018-07-15T04:09:53.226Z,938.38
2018-07-15T04:10:53.227Z,938.43
2018-07-15T04:11:53.228Z,938.48
2018-07-15T04:12:53.227Z,938.51
2018-07-15T04:13:53.228Z,938.51
2018-07-15T04:14:53.229Z,938.59
2018-07-15T04:15:53.228Z,938.56
2018-07-15T04:16:53.230Z,938.58
2018-07-15T04:17:53.230Z,938.59
2018-07-15T04:18:53.236Z,938.59
2018-07-15T04:19:53.231Z,938.63
2018-07-15T04:20:53.231Z,938.63
2018-07-15T04:21:53.232Z,938.63
2018-07-15T04:22:53.234Z,938.65
2018-07-15T04:23:53.233Z,938.60
2018-07-15T04:24:53.234Z,938.63
2018-07-15T04:25:53.235Z,938.60
2018-07-15T04:26:53.235Z,938.67
2018-07-15T04:27:53.235Z,938.62
2018-07-15T04:28:53.236Z,938.64
2018-07-15T04:29:53.238Z,938.62
2018-07-15T04:30:53.237Z,938.55
2018-07-15T04:31:53.238Z,938.56
2018-07-15T04:32:53.238Z,938.54
2018-07-15T04:33:53.239Z,938.55
2018-07-15T04:34:53.240Z,938.56
2018-07-15T04:35:53.239Z,938.57
2018-07-15T04:36:53.240Z,938.57
2018-07-15T04:37:53.271Z,938.62
2018-07-15T04:38:53.241Z,938.62
2018-07-15T04:39:53.249Z,938.64
2018-07-15T04:40:53.243Z,938.61
2018-07-15T04:41:53.243Z,938.72
2018-07-15T04:42:53.244Z,938.66
2018-07-15T04:43:53.274Z,938.61
2018-07-15T04:44:53.244Z,938.65
2018-07-15T04:45:53.246Z,938.68
2018-07-15T04:46:53.246Z,938.66
2018-07-15T04:47:53.246Z,938.67
2018-07-15T04:48:53.246Z,938.67
2018-07-15T04:49:53.247Z,938.71
2018-07-15T04:50:53.250Z,938.75
2018-07-15T04:51:53.249Z,938.73
2018-07-15T04:52:53.247Z,938.75
2018-07-15T04:53:53.249Z,938.70
2018-07-15T04:54:53.250Z,938.67
2018-07-15T04:55:53.250Z,938.70
2018-07-15T04:56:53.250Z,938.70
2018-07-15T04:57:53.255Z,938.69
2018-07-15T04:58:53.252Z,938.71
2018-07-15T04:59:53.252Z,938.62
2018-07-15T05:00:53.253Z,938.62
2018-07-15T05:01:53.259Z,938.66
2018-07-15T05:02:53.255Z,938.65
2018-07-15T05:03:53.255Z,938.67
2018-07-15T05:04:53.255Z,938.65
2018-07-15T05:05:53.257Z,938.71
2018-07-15T05:06:53.257Z,938.71
2018-07-15T05:07:53.258Z,938.69
2018-07-15T05:08:53.257Z,938.76
2018-07-15T05:09:53.260Z,938.76
2018-07-15T05:10:53.261Z,938.77
2018-07-15T05:11:53.261Z,938.75
2018-07-15T05:12:53.264Z,938.79
2018-07-15T05:13:53.262Z,938.79
2018-07-15T05:14:53.262Z,938.79
2018-07-15T05:15:53.262Z,938.79
2018-07-15T05:16:53.263Z,938.77
2018-07-15T05:17:53.265Z,938.80
2018-07-15T05:18:53.265Z,938.79
2018-07-15T05:19:53.266Z,938.82
2018-07-15T05:20:53.266Z,938.78
2018-07-15T05:21:53.267Z,938.86
2018-07-15T05:22:53.269Z,938.81
2018-07-15T05:23:53.269Z,938.80
2018-07-15T05:24:53.288Z,938.83
2018-07-15T05:25:53.272Z,938.81
2018-07-15T05:26:53.272Z,938.84
2018-07-15T05:27:53.272Z,938.82
2018-07-15T05:28:53.273Z,938.83
2018-07-15T05:29:53.278Z,938.83
2018-07-15T05:30:53.275Z,938.80
2018-07-15T05:31:53.277Z,938.78
2018-07-15T05:32:53.278Z,938.84
2018-07-15T05:33:53.281Z,938.76
2018-07-15T05:34:53.336Z,938.79
2018-07-15T05:35:53.281Z,938.77
2018-07-15T05:36:53.282Z,938.83
2018-07-15T05:37:53.283Z,938.82
2018-07-15T05:38:53.283Z,938.81
2018-07-15T05:39:53.284Z,938.82
2018-07-15T05:40:53.284Z,938.82
2018-07-15T05:41:53.286Z,938.86
2018-07-15T05:42:53.287Z,938.82
2018-07-15T05:43:53.286Z,938.84
2018-07-15T05:44:53.289Z,938.81
2018-07-15T05:45:53.291Z,938.88
2018-07-15T05:46:53.292Z,938.84
2018-07-15T05:47:53.292Z,938.86
2018-07-15T05:48:53.294Z,938.85
2018-07-15T05:49:53.295Z,938.89
2018-07-15T05:50:53.296Z,938.90
2018-07-15T05:51:53.310Z,938.83
2018-07-15T05:52:53.298Z,938.85
2018-07-15T05:53:53.304Z,938.90
2018-07-15T05:54:53.301Z,938.84
2018-07-15T05:55:53.302Z,938.88
2018-07-15T05:56:53.303Z,938.90
2018-07-15T05:57:53.331Z,938.89
2018-07-15T05:58:53.305Z,938.87
2018-07-15T05:59:53.306Z,938.91
2018-07-15T06:00:53.308Z,938.91
2018-07-15T06:01:53.309Z,938.90
2018-07-15T06:02:53.311Z,938.97
2018-07-15T06:03:53.311Z,938.99
2018-07-15T06:04:53.313Z,938.97
2018-07-15T06:05:53.314Z,938.98
2018-07-15T06:06:53.316Z,938.98
2018-07-15T06:07:53.321Z,939.02
2018-07-15T06:08:53.319Z,939.01
2018-07-15T06:09:53.320Z,939.01
2018-07-15T06:10:53.322Z,939.03
2018-07-15T06:11:53.323Z,939.00
2018-07-15T06:12:53.326Z,939.01
2018-07-15T06:13:53.327Z,938.98
2018-07-15T06:14:53.334Z,939.03
2018-07-15T06:15:53.331Z,939.01
2018-07-15T06:16:53.332Z,938.98
2018-07-15T06:17:53.334Z,938.97
2018-07-15T06:18:53.336Z,938.96
2018-07-15T06:19:53.336Z,938.99
2018-07-15T06:20:53.346Z,938.99
2018-07-15T06:21:53.341Z,939.01
2018-07-15T06:22:53.344Z,939.03
2018-07-15T06:23:53.345Z,939.03
2018-07-15T06:24:53.346Z,939.02
2018-07-15T06:25:53.350Z,939.03
2018-07-15T06:26:53.351Z,938.98
2018-07-15T06:27:53.353Z,939.03
2018-07-15T06:28:53.361Z,939.04
2018-07-15T06:29:53.357Z,938.99
2018-07-15T06:30:53.360Z,938.99
2018-07-15T06:31:53.380Z,939.04
2018-07-15T06:32:53.364Z,939.04
2018-07-15T06:33:53.366Z,939.06
2018-07-15T06:34:53.369Z,939.05
2018-07-15T06:35:53.371Z,939.05
2018-07-15T06:36:53.373Z,939.07
2018-07-15T06:37:53.377Z,939.08
2018-07-15T06:38:53.380Z,939.08
2018-07-15T06:39:53.381Z,939.13
2018-07-15T06:40:53.384Z,939.10
2018-07-15T06:41:53.388Z,939.12
2018-07-15T06:42:53.395Z,939.14
2018-07-15T06:43:53.391Z,939.14
2018-07-15T06:44:53.395Z,939.08
2018-07-15T06:45:53.398Z,939.14
2018-07-15T06:46:53.401Z,939.17
2018-07-15T06:47:53.404Z,939.21
2018-07-15T06:48:53.406Z,939.18
2018-07-15T06:49:53.409Z,939.23
2018-07-15T06:50:53.412Z,939.24
2018-07-15T06:51:53.414Z,939.22
2018-07-15T06:52:53.417Z,939.20
2018-07-15T06:53:53.457Z,939.24
2018-07-15T06:54:53.424Z,939.22
2018-07-15T06:55:53.449Z,939.22
2018-07-15T06:56:53.429Z,939.22
2018-07-15T06:57:53.434Z,939.22
2018-07-15T06:58:53.438Z,939.24
2018-07-15T06:59:53.439Z,939.22
2018-07-15T07:00:53.444Z,939.23
2018-07-15T07:01:53.447Z,939.31
2018-07-15T07:02:53.454Z,939.21
2018-07-15T07:03:53.452Z,939.26
2018-07-15T07:04:53.456Z,939.20
2018-07-15T07:05:53.463Z,939.24
2018-07-15T07:06:53.464Z,939.22
2018-07-15T07:07:53.466Z,939.24
2018-07-15T07:08:53.470Z,939.27
2018-07-15T07:09:53.475Z,939.30
2018-07-15T07:10:53.477Z,939.26
2018-07-15T07:11:53.481Z,939.26
2018-07-15T07:12:53.483Z,939.34
2018-07-15T07:13:53.488Z,939.28
2018-07-15T07:14:53.491Z,939.26
2018-07-15T07:15:53.495Z,939.26
2018-07-15T07:16:53.498Z,939.22
2018-07-15T07:17:53.502Z,939.28
2018-07-15T07:18:53.507Z,939.26
2018-07-15T07:19:53.510Z,939.26
2018-07-15T07:20:53.512Z,939.25
2018-07-15T07:21:53.515Z,939.25
2018-07-15T07:22:53.517Z,939.23
2018-07-15T07:23:53.520Z,939.25
2018-07-15T07:24:53.523Z,939.30
2018-07-15T07:25:53.526Z,939.21
2018-07-15T07:26:53.529Z,939.23
2018-07-15T07:27:53.532Z,939.25
2018-07-15T07:28:53.570Z,939.25
2018-07-15T07:29:53.539Z,939.27
2018-07-15T07:30:53.541Z,939.26
2018-07-15T07:31:53.546Z,939.26
2018-07-15T07:32:53.547Z,939.29
2018-07-15T07:33:53.551Z,939.23
2018-07-15T07:34:53.554Z,939.29
2018-07-15T07:35:53.557Z,939.33
2018-07-15T07:36:53.559Z,939.33
2018-07-15T07:37:53.564Z,939.31
2018-07-15T07:38:53.565Z,939.33
2018-07-15T07:39:53.567Z,939.36
2018-07-15T07:40:53.571Z,939.33
2018-07-15T07:41:53.574Z,939.34
2018-07-15T07:42:53.578Z,939.37
2018-07-15T07:43:53.580Z,939.39
2018-07-15T07:44:53.584Z,939.44
2018-07-15T07:45:53.587Z,939.38
2018-07-15T07:46:53.613Z,939.39
2018-07-15T07:47:53.593Z,939.41
2018-07-15T07:48:53.597Z,939.38
2018-07-15T07:49:53.604Z,939.42
2018-07-15T07:50:53.605Z,939.38
2018-07-15T07:51:53.810Z,939.44
2018-07-15T07:52:53.616Z,939.42
2018-07-15T07:53:53.617Z,939.38
2018-07-15T07:54:53.620Z,939.36
2018-07-15T07:55:53.623Z,939.35
2018-07-15T07:56:53.629Z,939.35
2018-07-15T07:57:53.631Z,939.36
2018-07-15T07:58:53.636Z,939.35
2018-07-15T07:59:53.638Z,939.31
2018-07-15T08:00:53.642Z,939.29
2018-07-15T08:01:53.715Z,939.33
2018-07-15T08:02:53.652Z,939.34
2018-07-15T08:03:53.654Z,939.33
2018-07-15T08:04:53.657Z,939.29
2018-07-15T08:05:53.661Z,939.28
2018-07-15T08:06:53.666Z,939.26
2018-07-15T08:07:53.669Z,939.30
2018-07-15T08:08:53.673Z,939.26
2018-07-15T08:09:53.678Z,939.32
2018-07-15T08:10:53.682Z,939.26
2018-07-15T08:11:53.687Z,939.25
2018-07-15T08:12:53.691Z,939.29
2018-07-15T08:13:53.696Z,939.27
2018-07-15T08:14:53.703Z,939.44
2018-07-15T08:15:53.705Z,939.38
2018-07-15T08:16:53.711Z,939.33
2018-07-15T08:17:53.718Z,939.35
2018-07-15T08:18:53.722Z,939.49
2018-07-15T08:19:53.729Z,939.56
2018-07-15T08:20:53.734Z,939.40
2018-07-15T08:21:53.742Z,939.48
2018-07-15T08:22:53.749Z,939.44
2018-07-15T08:23:53.756Z,939.51
2018-07-15T08:24:53.763Z,939.55
2018-07-15T08:25:53.770Z,939.53
2018-07-15T08:26:53.783Z,939.57
2018-07-15T08:27:53.789Z,939.56
2018-07-15T08:28:53.800Z,939.47
2018-07-15T08:29:53.806Z,939.46
2018-07-15T08:30:53.815Z,939.43
2018-07-15T08:31:53.825Z,939.43
2018-07-15T08:32:53.835Z,939.55
2018-07-15T08:33:53.843Z,939.57
2018-07-15T08:34:53.895Z,939.55
2018-07-15T08:35:53.862Z,939.57
2018-07-15T08:36:53.873Z,939.62
2018-07-15T08:37:53.883Z,939.57
2018-07-15T08:38:53.895Z,939.55
2018-07-15T08:39:53.906Z,939.60
2018-07-15T08:40:53.917Z,939.58
2018-07-15T08:41:53.928Z,939.50
2018-07-15T08:42:53.941Z,939.54
2018-07-15T08:43:53.952Z,939.51
2018-07-15T08:44:53.965Z,939.53
2018-07-15T08:45:54.007Z,939.48
2018-07-15T08:46:53.987Z,939.45
2018-07-15T08:47:53.998Z,939.46
2018-07-15T08:48:54.010Z,939.49
2018-07-15T08:49:54.021Z,939.48
2018-07-15T08:50:54.031Z,939.42
2018-07-15T08:51:54.042Z,939.43
2018-07-15T08:52:54.052Z,939.49
2018-07-15T08:53:54.061Z,939.43
2018-07-15T08:54:54.072Z,939.40
2018-07-15T08:55:54.081Z,939.40
2018-07-15T08:56:54.091Z,939.42
2018-07-15T08:57:54.100Z,939.40
2018-07-15T08:58:54.113Z,939.46
2018-07-15T08:59:54.118Z,939.45
2018-07-15T09:00:54.127Z,939.41
2018-07-15T09:01:54.136Z,939.37
2018-07-15T09:02:54.144Z,939.45
2018-07-15T09:03:54.153Z,939.50
2018-07-15T09:04:54.161Z,939.40
2018-07-15T09:05:54.170Z,939.49
2018-07-15T09:06:54.180Z,939.37
2018-07-15T09:07:54.190Z,939.37
2018-07-15T09:08:54.197Z,939.41
2018-07-15T09:09:54.208Z,939.39
2018-07-15T09:10:54.216Z,939.32
2018-07-15T09:11:54.225Z,939.38
2018-07-15T09:12:54.235Z,939.35
2018-07-15T09:13:54.252Z,939.31
2018-07-15T09:14:54.256Z,939.32
2018-07-15T09:15:54.266Z,939.28
2018-07-15T09:16:54.272Z,939.28
2018-07-15T09:17:54.282Z,939.26
2018-07-15T09:18:54.295Z,939.32
2018-07-15T09:19:54.299Z,939.32
2018-07-15T09:20:54.309Z,939.33
2018-07-15T09:21:54.332Z,939.33
2018-07-15T09:22:54.332Z,939.37
2018-07-15T09:23:54.339Z,939.33
2018-07-15T09:24:54.350Z,939.35
2018-07-15T09:25:54.361Z,939.27
2018-07-15T09:26:54.374Z,939.27
2018-07-15T09:27:54.521Z,939.27
2018-07-15T09:28:54.393Z,939.22
2018-07-15T09:29:54.404Z,939.28
2018-07-15T09:30:54.416Z,939.18
2018-07-15T09:31:54.426Z,939.17
2018-07-15T09:32:54.436Z,939.14
2018-07-15T09:33:54.447Z,939.08
2018-07-15T09:34:54.456Z,939.15
2018-07-15T09:35:54.467Z,939.17
2018-07-15T09:36:54.477Z,939.17
2018-07-15T09:37:54.488Z,939.12
2018-07-15T09:38:54.498Z,939.15
2018-07-15T09:39:54.508Z,939.17
2018-07-15T09:40:54.523Z,939.16
2018-07-15T09:41:54.530Z,939.15
2018-07-15T09:42:54.541Z,939.16
2018-07-15T09:43:54.550Z,939.09
2018-07-15T09:44:54.562Z,939.06
2018-07-15T09:45:54.573Z,939.06
2018-07-15T09:46:54.585Z,939.02
2018-07-15T09:47:54.594Z,938.98
2018-07-15T09:48:54.605Z,939.01
2018-07-15T09:49:54.616Z,938.98
2018-07-15T09:50:54.627Z,938.96
2018-07-15T09:51:54.636Z,938.96
2018-07-15T09:52:54.648Z,938.94
2018-07-15T09:53:54.656Z,938.96
2018-07-15T09:54:54.666Z,938.96
2018-07-15T09:55:54.674Z,938.98
2018-07-15T09:56:54.683Z,938.95
2018-07-15T09:57:54.694Z,938.95
2018-07-15T09:58:54.702Z,938.93
2018-07-15T09:59:54.711Z,938.90
2018-07-15T10:00:54.720Z,938.94
2018-07-15T10:01:54.729Z,938.94
2018-07-15T10:02:54.738Z,938.94
2018-07-15T10:03:54.747Z,938.93
2018-07-15T10:04:54.754Z,938.94
2018-07-15T10:05:54.763Z,938.96
2018-07-15T10:06:54.772Z,938.95
2018-07-15T10:07:54.780Z,938.93
2018-07-15T10:08:54.790Z,938.92
2018-07-15T10:09:54.797Z,938.91
2018-07-15T10:10:54.805Z,938.92
2018-07-15T10:11:54.814Z,938.95
2018-07-15T10:12:54.823Z,938.92
2018-07-15T10:13:54.833Z,938.87
2018-07-15T10:14:54.843Z,938.89
2018-07-15T10:15:54.850Z,938.84
2018-07-15T10:16:54.860Z,938.88
2018-07-15T10:17:54.870Z,938.87
2018-07-15T10:18:54.902Z,938.89
2018-07-15T10:19:54.888Z,938.87
2018-07-15T10:20:54.897Z,938.84
2018-07-15T10:21:54.907Z,938.83
2018-07-15T10:22:54.916Z,938.86
2018-07-15T10:23:54.924Z,938.83
2018-07-15T10:24:54.933Z,938.85
2018-07-15T10:25:54.942Z,938.86
2018-07-15T10:26:54.953Z,938.83
2018-07-15T10:27:54.962Z,938.78
2018-07-15T10:28:54.975Z,938.75
2018-07-15T10:29:54.984Z,938.78
2018-07-15T10:30:54.994Z,938.77
2018-07-15T10:31:55.007Z,938.73
2018-07-15T10:32:55.016Z,938.74
2018-07-15T10:33:55.025Z,938.76
2018-07-15T10:34:55.037Z,938.73
2018-07-15T10:35:55.046Z,938.73
2018-07-15T10:36:55.060Z,938.68
2018-07-15T10:37:55.071Z,938.73
2018-07-15T10:38:55.147Z,938.70
2018-07-15T10:39:55.146Z,938.66
2018-07-15T10:40:55.104Z,938.67
2018-07-15T10:41:55.117Z,938.66
2018-07-15T10:42:55.127Z,938.65
2018-07-15T10:43:55.139Z,938.61
2018-07-15T10:44:55.151Z,938.63
2018-07-15T10:45:55.162Z,938.57
2018-07-15T10:46:55.174Z,938.56
2018-07-15T10:47:55.185Z,938.58
2018-07-15T10:48:55.197Z,938.57
2018-07-15T10:49:55.209Z,938.53
2018-07-15T10:50:55.222Z,938.54
2018-07-15T10:51:55.232Z,938.52
2018-07-15T10:52:55.308Z,938.54
2018-07-15T10:53:55.256Z,938.55
2018-07-15T10:54:55.268Z,938.53
2018-07-15T10:55:55.281Z,938.54
2018-07-15T10:56:55.294Z,938.51
2018-07-15T10:57:55.305Z,938.53
2018-07-15T10:58:55.317Z,938.47
2018-07-15T10:59:55.329Z,938.42
2018-07-15T11:00:55.350Z,938.40
2018-07-15T11:01:55.354Z,938.36
2018-07-15T11:02:55.365Z,938.41
2018-07-15T11:03:55.377Z,938.40
2018-07-15T11:04:55.388Z,938.35
2018-07-15T11:05:55.399Z,938.32
2018-07-15T11:06:55.411Z,938.37
2018-07-15T11:07:55.422Z,938.28
2018-07-15T11:08:55.435Z,938.28
2018-07-15T11:09:55.443Z,938.25
2018-07-15T11:10:55.461Z,938.25
2018-07-15T11:11:55.465Z,938.23
2018-07-15T11:12:55.475Z,938.23
2018-07-15T11:13:55.486Z,938.23
2018-07-15T11:14:55.498Z,938.21
2018-07-15T11:15:55.507Z,938.20
2018-07-15T11:16:55.545Z,938.22
2018-07-15T11:17:55.528Z,938.19
2018-07-15T11:18:55.538Z,938.23
2018-07-15T11:19:55.549Z,938.21
2018-07-15T11:20:55.557Z,938.17
2018-07-15T11:21:55.570Z,938.20
2018-07-15T11:22:55.580Z,938.21
2018-07-15T11:23:55.590Z,938.18
2018-07-15T11:24:55.600Z,938.19
2018-07-15T11:25:55.611Z,938.16
2018-07-15T11:26:55.622Z,938.15
2018-07-15T11:27:55.632Z,938.14
2018-07-15T11:28:55.643Z,938.13
2018-07-15T11:29:55.654Z,938.10
2018-07-15T11:30:55.738Z,938.08
2018-07-15T11:31:55.674Z,938.04
2018-07-15T11:32:55.684Z,938.00
2018-07-15T11:33:55.706Z,938.03
2018-07-15T11:34:55.705Z,937.99
2018-07-15T11:35:55.718Z,937.99
2018-07-15T11:36:55.726Z,938.00
2018-07-15T11:37:55.734Z,937.98
2018-07-15T11:38:55.791Z,937.98
2018-07-15T11:39:55.753Z,937.91
2018-07-15T11:40:55.762Z,937.87
2018-07-15T11:41:55.773Z,937.89
2018-07-15T11:42:55.781Z,937.85
2018-07-15T11:43:55.788Z,937.81
2018-07-15T11:44:55.798Z,937.79
2018-07-15T11:45:55.805Z,937.78
2018-07-15T11:46:55.813Z,937.76
2018-07-15T11:47:55.821Z,937.74
2018-07-15T11:48:55.831Z,937.72
2018-07-15T11:49:55.838Z,937.68
2018-07-15T11:50:55.850Z,937.69
2018-07-15T11:51:55.857Z,937.67
2018-07-15T11:52:55.862Z,937.66
2018-07-15T11:53:55.869Z,937.63
2018-07-15T11:54:55.878Z,937.61
2018-07-15T11:55:55.885Z,937.60
2018-07-15T11:56:55.892Z,937.63
2018-07-15T11:57:55.900Z,937.63
2018-07-15T11:58:55.913Z,937.64
2018-07-15T11:59:55.914Z,937.62
2018-07-15T12:00:55.921Z,937.63
2018-07-15T12:01:55.945Z,937.68
2018-07-15T12:02:55.937Z,937.62
2018-07-15T12:03:55.943Z,937.61
2018-07-15T12:04:55.952Z,937.62
2018-07-15T12:05:55.960Z,937.66
2018-07-15T12:06:55.968Z,937.68
2018-07-15T12:07:55.976Z,937.67
2018-07-15T12:08:55.984Z,937.64
2018-07-15T12:09:55.993Z,937.64
2018-07-15T12:10:56.050Z,937.60
2018-07-15T12:11:56.010Z,937.57
2018-07-15T12:12:56.020Z,937.56
2018-07-15T12:13:56.028Z,937.57
2018-07-15T12:14:56.037Z,937.58
2018-07-15T12:15:56.049Z,937.60
2018-07-15T12:16:56.053Z,937.54
2018-07-15T12:17:56.066Z,937.57
2018-07-15T12:18:56.073Z,937.55
2018-07-15T12:19:56.082Z,937.54
2018-07-15T12:20:56.091Z,937.55
2018-07-15T12:21:56.100Z,937.56
2018-07-15T12:22:56.110Z,937.58
2018-07-15T12:23:56.118Z,937.54
2018-07-15T12:24:56.128Z,937.49
2018-07-15T12:25:56.138Z,937.49
2018-07-15T12:26:56.149Z,937.47
2018-07-15T12:27:56.158Z,937.47
2018-07-15T12:28:56.169Z,937.49